Time;durP1;ratioP1;P1;durP2;ratioP2;P2;SDS_P1;SDS_P2;PMS_P1;PMS_P2;Temp;Humidity;BMP_temperature;BMP_pressure;BME280_temperature;BME280_humidity;BME280_pressure;Samples;Min_cycle;Max_cycle;Signal;HPM_P1;HPM_P2
2021/04/01 00:01:43;;;;;;;16.47;11.67;;;11.20;99.90;;;;;;5017485;28;20206;-76
2021/04/01 00:04:09;;;;;;;16.17;12.30;;;11.10;99.90;;;;;;5034932;28;20214;-77
2021/04/01 00:06:35;;;;;;;16.63;10.70;;;11.20;99.90;;;;;;5033304;28;20441;-76
2021/04/01 00:09:01;;;;;;;19.30;12.17;;;11.20;99.90;;;;;;5034917;28;20499;-77
2021/04/01 00:11:26;;;;;;;18.53;12.37;;;11.10;99.90;;;;;;5035060;28;20182;-77
2021/04/01 00:13:52;;;;;;;18.17;12.10;;;11.10;99.90;;;;;;5033694;28;20193;-77
2021/04/01 00:16:19;;;;;;;16.47;12.20;;;11.10;99.90;;;;;;5033143;28;20344;-78
2021/04/01 00:18:45;;;;;;;16.13;11.93;;;11.00;99.90;;;;;;5034744;28;20182;-77
2021/04/01 00:21:11;;;;;;;20.43;12.80;;;11.00;99.90;;;;;;5033313;28;20530;-77
2021/04/01 00:23:37;;;;;;;21.63;14.37;;;11.00;99.90;;;;;;5034694;28;20395;-78
2021/04/01 00:26:02;;;;;;;15.30;12.20;;;11.00;99.90;;;;;;5033372;28;20198;-79
2021/04/01 00:28:28;;;;;;;18.57;14.07;;;11.00;99.90;;;;;;5033528;28;20193;-77
2021/04/01 00:30:54;;;;;;;19.60;12.97;;;10.90;99.90;;;;;;5034643;28;20212;-77
2021/04/01 00:33:19;;;;;;;22.60;15.00;;;10.90;99.90;;;;;;5034409;28;20178;-77
2021/04/01 00:35:45;;;;;;;18.83;13.40;;;10.90;99.90;;;;;;5034411;28;20198;-77
2021/04/01 00:38:11;;;;;;;17.83;11.77;;;10.80;99.90;;;;;;5034305;28;20181;-78
2021/04/01 00:40:36;;;;;;;13.77;11.00;;;10.80;99.90;;;;;;5034359;28;20604;-78
2021/04/01 00:43:02;;;;;;;15.77;11.37;;;10.70;99.90;;;;;;5034229;28;20630;-78
2021/04/01 00:45:28;;;;;;;19.43;11.20;;;10.70;99.90;;;;;;5032380;28;20202;-77
2021/04/01 00:47:54;;;;;;;17.33;11.50;;;10.60;99.90;;;;;;5033117;28;20201;-77
2021/04/01 00:50:28;;;;;;;15.00;11.97;;;10.60;99.90;;;;;;5034198;28;20182;-77
2021/04/01 00:52:55;;;;;;;18.07;12.40;;;10.60;99.90;;;;;;5034131;28;20454;-77
2021/04/01 00:55:21;;;;;;;20.97;12.50;;;10.50;99.90;;;;;;5032382;28;20539;-77
2021/04/01 00:57:50;;;;;;;23.67;12.87;;;10.50;99.90;;;;;;5032611;28;20516;-77
2021/04/01 01:00:18;;;;;;;15.70;12.40;;;10.50;99.90;;;;;;5033875;28;20431;-77
2021/04/01 01:02:44;;;;;;;18.80;14.10;;;10.50;99.90;;;;;;5032616;28;20392;-77
2021/04/01 01:05:12;;;;;;;19.87;14.13;;;10.50;99.90;;;;;;5033721;28;20481;-77
2021/04/01 01:07:38;;;;;;;23.70;14.40;;;10.50;99.90;;;;;;5033701;28;20512;-77
2021/04/01 01:10:09;;;;;;;21.87;15.00;;;10.50;99.90;;;;;;5032634;28;20520;-77
2021/04/01 01:12:35;;;;;;;27.07;15.37;;;10.50;99.90;;;;;;5032368;28;20188;-77
2021/04/01 01:15:02;;;;;;;24.07;14.63;;;10.50;99.90;;;;;;5015645;28;20519;-76
2021/04/01 01:17:28;;;;;;;20.70;15.30;;;10.50;99.90;;;;;;5033680;28;20201;-78
2021/04/01 01:19:54;;;;;;;24.67;15.53;;;10.50;99.90;;;;;;5033253;28;20405;-77
2021/04/01 01:22:21;;;;;;;17.90;14.00;;;10.50;99.90;;;;;;5032618;28;20239;-77
2021/04/01 01:24:47;;;;;;;19.53;14.80;;;10.50;99.90;;;;;;5032001;28;20918;-77
2021/04/01 01:27:13;;;;;;;26.53;15.70;;;10.50;99.90;;;;;;5033190;28;20453;-77
2021/04/01 01:29:39;;;;;;;19.77;16.17;;;10.50;99.90;;;;;;5032202;28;20384;-78
2021/04/01 01:32:06;;;;;;;23.57;16.23;;;10.50;99.90;;;;;;5033464;28;20391;-77
2021/04/01 01:34:37;;;;;;;35.07;16.20;;;10.40;99.90;;;;;;5033141;28;20437;-77
2021/04/01 01:37:03;;;;;;;20.67;14.70;;;10.30;99.90;;;;;;5031980;28;20946;-79
2021/04/01 01:39:30;;;;;;;22.63;12.87;;;10.40;99.90;;;;;;5031915;28;20432;-78
2021/04/01 01:41:55;;;;;;;20.13;15.17;;;10.40;99.90;;;;;;5033062;28;20460;-77
2021/04/01 01:44:21;;;;;;;18.90;13.77;;;10.40;99.90;;;;;;5033212;28;20424;-76
2021/04/01 01:46:46;;;;;;;25.60;14.83;;;10.50;99.90;;;;;;5033218;28;20190;-77
2021/04/01 01:49:12;;;;;;;20.20;14.40;;;10.50;99.90;;;;;;5031976;28;20178;-77
2021/04/01 01:51:38;;;;;;;24.40;13.60;;;10.50;99.90;;;;;;5033059;28;20186;-77
2021/04/01 01:54:04;;;;;;;25.30;14.50;;;10.40;99.90;;;;;;5032836;28;20645;-77
2021/04/01 01:56:30;;;;;;;24.23;13.80;;;10.40;99.90;;;;;;5032700;28;20263;-77
2021/04/01 01:58:57;;;;;;;21.90;15.63;;;10.30;99.90;;;;;;5031833;28;20416;-79
2021/04/01 02:01:25;;;;;;;21.47;14.80;;;10.30;99.90;;;;;;5033203;28;20392;-77
2021/04/01 02:03:51;;;;;;;23.00;14.07;;;10.30;99.90;;;;;;5033371;28;20482;-77
2021/04/01 02:06:19;;;;;;;19.93;14.47;;;10.20;99.90;;;;;;5032453;28;20444;-78
2021/04/01 02:08:45;;;;;;;24.43;15.23;;;10.10;99.90;;;;;;5031526;28;20945;-78
2021/04/01 02:11:11;;;;;;;21.20;14.53;;;10.10;99.90;;;;;;5032890;28;20945;-77
2021/04/01 02:13:36;;;;;;;18.87;13.53;;;10.10;99.90;;;;;;5031958;28;20387;-78
2021/04/01 02:16:02;;;;;;;20.00;14.50;;;10.10;99.90;;;;;;5032617;28;20202;-76
2021/04/01 02:18:30;;;;;;;20.20;13.57;;;10.10;99.90;;;;;;5032871;28;20557;-78
2021/04/01 02:20:57;;;;;;;18.93;13.40;;;10.00;99.90;;;;;;5031566;28;20417;-77
2021/04/01 02:23:31;;;;;;;19.33;12.83;;;10.10;99.90;;;;;;5031544;28;20429;-77
2021/04/01 02:25:58;;;;;;;16.67;12.03;;;10.10;99.90;;;;;;5032260;28;20790;-76
2021/04/01 02:28:27;;;;;;;16.77;13.90;;;10.10;99.90;;;;;;5031234;28;20789;-77
2021/04/01 02:30:55;;;;;;;20.13;12.23;;;10.10;99.90;;;;;;5031432;28;20802;-78
2021/04/01 02:33:23;;;;;;;16.73;12.97;;;10.10;99.90;;;;;;5032605;28;20417;-77
2021/04/01 02:35:50;;;;;;;17.43;12.87;;;10.10;99.90;;;;;;5032347;28;20511;-77
2021/04/01 02:38:16;;;;;;;19.17;12.23;;;10.00;99.90;;;;;;5031202;28;20773;-77
2021/04/01 02:40:42;;;;;;;15.90;13.77;;;10.00;99.90;;;;;;5032628;28;20413;-77
2021/04/01 02:43:09;;;;;;;23.10;14.63;;;9.90;99.90;;;;;;5032570;28;20392;-77
2021/04/01 02:45:35;;;;;;;22.07;15.27;;;9.90;99.90;;;;;;5032171;28;20678;-77
2021/04/01 02:48:01;;;;;;;26.83;18.93;;;9.90;99.90;;;;;;5031222;28;20419;-79
2021/04/01 02:50:27;;;;;;;28.43;18.30;;;9.90;99.90;;;;;;5033351;28;20297;-76
2021/04/01 02:52:52;;;;;;;26.30;17.63;;;9.90;99.90;;;;;;5036443;28;20875;-77
2021/04/01 02:55:19;;;;;;;22.20;17.30;;;9.90;99.90;;;;;;5034836;28;20456;-77
2021/04/01 02:57:45;;;;;;;29.60;18.03;;;9.90;99.90;;;;;;5036351;28;20257;-78
2021/04/01 03:00:16;;;;;;;23.60;16.50;;;9.90;99.90;;;;;;5036348;28;21001;-77
2021/04/01 03:02:45;;;;;;;24.87;17.33;;;9.90;99.90;;;;;;5035049;28;20468;-76
2021/04/01 03:05:12;;;;;;;25.60;16.70;;;9.90;99.90;;;;;;5035710;28;20411;-78
2021/04/01 03:07:39;;;;;;;31.03;18.43;;;9.90;99.90;;;;;;5034752;28;20428;-76
2021/04/01 03:10:07;;;;;;;29.13;17.57;;;9.90;99.90;;;;;;5035957;28;20409;-77
2021/04/01 03:12:33;;;;;;;27.60;18.30;;;9.90;99.90;;;;;;5036222;28;20423;-78
2021/04/01 03:14:59;;;;;;;25.77;17.30;;;9.90;99.90;;;;;;5035588;28;20846;-77
2021/04/01 03:17:24;;;;;;;23.50;16.67;;;9.90;99.90;;;;;;5034815;28;20507;-77
2021/04/01 03:19:50;;;;;;;24.70;15.77;;;9.90;99.90;;;;;;5036139;28;20173;-77
2021/04/01 03:22:16;;;;;;;27.63;17.20;;;9.90;99.90;;;;;;5036042;28;20623;-76
2021/04/01 03:24:42;;;;;;;28.70;19.30;;;9.90;99.90;;;;;;5035533;28;20178;-77
2021/04/01 03:27:07;;;;;;;23.80;16.83;;;9.90;99.90;;;;;;5035568;28;20867;-77
2021/04/01 03:29:33;;;;;;;22.70;15.77;;;10.00;99.90;;;;;;5035982;28;20537;-76
2021/04/01 03:31:59;;;;;;;32.83;16.37;;;9.90;99.90;;;;;;5035696;28;20209;-77
2021/04/01 03:34:25;;;;;;;25.47;15.80;;;10.00;99.90;;;;;;5034730;28;20525;-78
2021/04/01 03:36:50;;;;;;;30.90;16.40;;;10.00;99.90;;;;;;5034262;28;20839;-78
2021/04/01 03:39:16;;;;;;;23.97;17.50;;;10.00;99.90;;;;;;5034321;28;20179;-78
2021/04/01 03:41:42;;;;;;;22.93;16.57;;;10.00;99.90;;;;;;5035645;28;20201;-77
2021/04/01 03:44:08;;;;;;;26.47;15.60;;;10.00;99.90;;;;;;5035466;28;20516;-78
2021/04/01 03:46:35;;;;;;;31.80;17.37;;;10.00;99.90;;;;;;5034907;28;20190;-77
2021/04/01 03:49:01;;;;;;;23.23;16.63;;;9.90;99.90;;;;;;5034017;28;20174;-77
2021/04/01 03:51:27;;;;;;;24.37;17.70;;;9.90;99.90;;;;;;5035447;28;20236;-77
2021/04/01 03:53:52;;;;;;;25.47;15.73;;;9.90;99.90;;;;;;5034075;28;20395;-77
2021/04/01 03:56:18;;;;;;;25.93;15.43;;;9.90;99.90;;;;;;5033515;28;20198;-77
2021/04/01 03:58:56;;;;;;;27.13;16.33;;;10.00;99.90;;;;;;5033887;28;20265;-77
2021/04/01 04:14:49;;;;;;;28.13;16.97;;;10.10;99.90;;;;;;5021585;28;20222;-77
2021/04/01 04:17:15;;;;;;;26.03;16.60;;;10.10;99.90;;;;;;5034776;28;20466;-78
2021/04/01 04:19:41;;;;;;;23.07;16.40;;;10.00;99.90;;;;;;5034848;28;20416;-77
2021/04/01 04:22:08;;;;;;;23.77;16.73;;;10.00;99.90;;;;;;5034729;28;20213;-78
2021/04/01 04:24:35;;;;;;;28.37;17.67;;;10.00;99.90;;;;;;5033116;28;20190;-76
2021/04/01 04:27:13;;;;;;;25.03;16.67;;;10.00;99.90;;;;;;5034343;28;20464;-76
2021/04/01 04:29:39;;;;;;;27.47;17.97;;;10.00;99.90;;;;;;5033479;28;20425;-77
2021/04/01 04:32:05;;;;;;;27.73;18.30;;;10.00;99.90;;;;;;5034669;28;20471;-76
2021/04/01 04:34:31;;;;;;;26.70;18.63;;;10.10;99.90;;;;;;5032927;28;20185;-76
2021/04/01 04:36:56;;;;;;;32.80;18.47;;;10.10;99.90;;;;;;5034411;28;20433;-76
2021/04/01 04:39:22;;;;;;;26.30;17.73;;;10.20;99.90;;;;;;5034284;28;20249;-77
2021/04/01 04:41:48;;;;;;;33.80;18.43;;;10.20;99.90;;;;;;5034503;28;20194;-76
2021/04/01 04:44:13;;;;;;;31.67;19.57;;;10.20;99.90;;;;;;5033573;28;20616;-77
2021/04/01 04:46:39;;;;;;;32.00;18.97;;;10.20;99.90;;;;;;5023820;28;20215;-76
2021/04/01 04:49:04;;;;;;;34.43;18.97;;;10.20;99.90;;;;;;5014320;28;20179;-76
2021/04/01 04:51:30;;;;;;;33.80;19.10;;;10.20;99.90;;;;;;5013032;28;20570;-75
2021/04/01 04:53:56;;;;;;;25.70;17.33;;;10.20;99.90;;;;;;5013115;28;20224;-77
2021/04/01 04:56:24;;;;;;;32.90;20.67;;;10.10;99.90;;;;;;5013868;28;20198;-76
2021/04/01 04:59:03;;;;;;;35.70;20.90;;;10.00;99.90;;;;;;5012975;28;20186;-76
2021/04/01 05:07:05;;;;;;;35.23;17.33;;;10.00;99.90;;;;;;4999466;28;20432;-77
2021/04/01 05:09:30;;;;;;;26.20;17.53;;;10.00;99.90;;;;;;5014012;28;20425;-76
2021/04/01 05:11:56;;;;;;;28.87;19.20;;;10.00;99.90;;;;;;5013614;28;20234;-77
2021/04/01 05:14:22;;;;;;;30.07;18.40;;;10.00;99.90;;;;;;5012882;28;20171;-76
2021/04/01 05:16:47;;;;;;;29.17;19.57;;;10.00;99.90;;;;;;5012546;28;20225;-76
2021/04/01 05:19:14;;;;;;;33.00;19.57;;;10.00;99.90;;;;;;5013962;28;20640;-77
2021/04/01 05:21:52;;;;;;;29.57;17.33;;;10.00;99.90;;;;;;5013933;28;20700;-76
2021/04/01 05:24:20;;;;;;;35.55;19.00;;;9.90;99.90;;;;;;5014091;28;20921;-77
2021/04/01 05:29:33;;;;;;;32.67;19.13;;;9.90;99.90;;;;;;5014121;28;20421;-77
2021/04/01 05:31:59;;;;;;;30.52;19.75;;;9.90;99.90;;;;;;5013749;28;20523;-76
2021/04/01 05:34:26;;;;;;;35.53;21.57;;;9.90;99.90;;;;;;5018778;28;20256;-77
2021/04/01 05:36:54;;;;;;;30.30;18.90;;;10.00;99.90;;;;;;5033041;28;20925;-78
2021/04/01 05:39:26;;;;;;;41.20;19.40;;;9.90;99.90;;;;;;5033254;28;20424;-76
2021/04/01 05:41:53;;;;;;;33.33;18.60;;;10.00;99.90;;;;;;5033378;28;20395;-77
2021/04/01 05:57:41;;;;;;;37.22;20.90;;;10.00;99.90;;;;;;5033169;28;20460;-77
2021/04/01 06:05:52;;;;;;;30.57;19.80;;;10.10;99.90;;;;;;5032769;28;20479;-77
2021/04/01 06:08:25;;;;;;;35.97;22.27;;;10.10;99.90;;;;;;5032978;28;20391;-77
2021/04/01 06:10:51;;;;;;;37.30;20.00;;;10.10;99.90;;;;;;5033297;28;20476;-77
2021/04/01 06:13:18;;;;;;;34.00;18.80;;;10.20;99.90;;;;;;5032919;28;20262;-76
2021/04/01 06:15:49;;;;;;;34.73;20.47;;;10.20;99.90;;;;;;5014878;28;20445;-76
2021/04/01 06:18:16;;;;;;;31.87;20.60;;;10.20;99.90;;;;;;5031596;28;20413;-76
2021/04/01 06:20:47;;;;;;;29.40;20.17;;;10.30;99.90;;;;;;5031625;28;20392;-76
2021/04/01 06:23:26;;;;;;;36.97;21.37;;;10.30;99.90;;;;;;5031524;28;20431;-75
2021/04/01 06:25:54;;;;;;;28.97;18.23;;;10.30;99.90;;;;;;5034244;28;20441;-76
2021/04/01 06:28:47;;;;;;;36.57;22.93;;;10.20;99.90;;;;;;5036846;28;20511;-76
2021/04/01 06:31:24;;;;;;;49.00;24.10;;;10.20;99.90;;;;;;5036871;28;20452;-76
2021/04/01 06:33:52;;;;;;;34.57;19.80;;;10.20;99.90;;;;;;5036851;28;20384;-76
2021/04/01 06:36:24;;;;;;;40.23;23.27;;;10.20;99.90;;;;;;5035065;28;20941;-76
2021/04/01 06:38:50;;;;;;;42.97;23.47;;;10.40;99.90;;;;;;5036890;28;20421;-76
2021/04/01 06:41:24;;;;;;;36.00;21.47;;;10.60;99.90;;;;;;5036835;28;20398;-76
2021/04/01 06:43:56;;;;;;;33.90;20.50;;;10.70;99.90;;;;;;5036536;28;20554;-77
2021/04/01 06:46:25;;;;;;;39.53;22.03;;;10.60;99.90;;;;;;5036164;28;20418;-76
2021/04/01 06:52:04;;;;;;;38.07;21.00;;;10.80;99.90;;;;;;5036567;28;20484;-76
2021/04/01 06:54:46;;;;;;;42.20;22.57;;;10.90;99.90;;;;;;5036059;28;20410;-78
2021/04/01 06:57:45;;;;;;;40.60;21.23;;;11.00;99.90;;;;;;5036243;28;20425;-76
2021/04/01 07:03:02;;;;;;;38.03;21.40;;;11.30;99.90;;;;;;5036382;28;20492;-76
2021/04/01 07:05:38;;;;;;;32.00;20.73;;;11.30;99.90;;;;;;5034657;28;20448;-76
2021/04/01 07:08:08;;;;;;;32.50;21.03;;;11.30;99.90;;;;;;5036208;28;20491;-78
2021/04/01 07:10:54;;;;;;;33.20;19.80;;;11.30;99.90;;;;;;5035986;28;20548;-76
2021/04/01 07:13:32;;;;;;;39.83;22.33;;;11.40;99.90;;;;;;5036168;28;20408;-75
2021/04/01 07:16:16;;;;;;;32.27;18.80;;;11.50;99.90;;;;;;5035674;28;20411;-75
2021/04/01 07:19:14;;;;;;;30.00;19.90;;;11.70;99.90;;;;;;5035886;28;20401;-78
2021/04/01 07:47:38;;;;;;;40.63;22.80;;;13.50;99.90;;;;;;5035479;28;20367;-77
2021/04/01 07:50:21;;;;;;;42.70;24.50;;;13.60;99.90;;;;;;5035414;28;20857;-76
2021/04/01 07:53:00;;;;;;;39.73;24.30;;;13.80;99.90;;;;;;5033972;28;20416;-76
2021/04/01 07:55:33;;;;;;;40.87;24.23;;;13.90;99.90;;;;;;5033585;28;20443;-77
2021/04/01 07:58:24;;;;;;;36.87;24.37;;;14.20;99.90;;;;;;5034180;28;20916;-76
2021/04/01 08:06:25;;;;;;;41.63;25.23;;;14.60;99.90;;;;;;5035189;28;20449;-76
2021/04/01 08:08:56;;;;;;;42.40;26.80;;;14.80;99.90;;;;;;5033777;28;20403;-77
2021/04/01 08:11:31;;;;;;;46.97;28.40;;;14.80;99.90;;;;;;5033963;28;20480;-76
2021/04/01 08:14:15;;;;;;;53.40;27.73;;;15.00;99.90;;;;;;5035276;28;20746;-76
2021/04/01 08:17:05;;;;;;;49.17;27.40;;;15.10;99.90;;;;;;5034152;28;20410;-76
2021/04/01 08:19:37;;;;;;;41.87;26.33;;;15.20;99.90;;;;;;5034780;28;20409;-76
2021/04/01 08:22:05;;;;;;;46.53;25.13;;;15.10;99.90;;;;;;5034949;28;20427;-77
2021/04/01 08:24:40;;;;;;;46.83;26.00;;;15.40;99.90;;;;;;5033379;28;20566;-77
2021/04/01 08:35:25;;;;;;;45.90;29.07;;;15.90;99.90;;;;;;5034405;28;20403;-76
2021/04/01 08:40:39;;;;;;;45.20;28.67;;;16.10;99.90;;;;;;5034626;28;20865;-76
2021/04/01 08:43:38;;;;;;;47.00;26.07;;;16.30;99.90;;;;;;5016505;28;20429;-76
2021/04/01 08:46:07;;;;;;;43.97;27.33;;;16.50;99.90;;;;;;5033914;28;20425;-77
2021/04/01 08:48:55;;;;;;;48.30;26.70;;;16.80;99.90;;;;;;5033346;28;20405;-77
2021/04/01 08:51:53;;;;;;;47.03;27.20;;;17.40;99.90;;;;;;5034025;28;20471;-77
2021/04/01 08:54:56;;;;;;;47.73;28.13;;;17.90;99.90;;;;;;5021353;28;20440;-77
2021/04/01 08:57:37;;;;;;;50.40;27.80;;;17.90;99.90;;;;;;5034238;28;20404;-77
2021/04/01 09:00:03;;;;;;;43.33;26.50;;;17.80;99.90;;;;;;5034118;28;20815;-77
2021/04/01 09:02:31;;;;;;;55.67;28.03;;;17.90;99.90;;;;;;5034008;28;20543;-77
2021/04/01 09:04:59;;;;;;;45.53;26.30;;;18.10;99.90;;;;;;5033742;28;20188;-76
2021/04/01 09:07:28;;;;;;;43.00;26.00;;;18.50;99.90;;;;;;5032337;28;20499;-77
2021/04/01 09:10:02;;;;;;;45.33;26.83;;;18.40;99.90;;;;;;5032869;28;20440;-77
2021/04/01 09:12:35;;;;;;;45.27;27.90;;;18.40;99.90;;;;;;5033948;28;20409;-77
2021/04/01 09:15:05;;;;;;;45.63;27.00;;;18.70;99.90;;;;;;5033375;28;20413;-78
2021/04/01 09:17:36;;;;;;;44.57;27.03;;;18.90;99.90;;;;;;5032501;28;20432;-78
2021/04/01 09:20:12;;;;;;;47.90;27.00;;;19.30;99.90;;;;;;5033668;28;20456;-78
2021/04/01 09:22:43;;;;;;;44.67;25.00;;;19.30;99.90;;;;;;5033658;28;20405;-77
2021/04/01 09:25:09;;;;;;;45.97;28.00;;;19.30;99.90;;;;;;5033360;28;20437;-79
2021/04/01 09:27:45;;;;;;;47.83;27.57;;;19.80;99.90;;;;;;5033181;28;20429;-78
2021/04/01 09:30:11;;;;;;;42.10;27.20;;;19.50;99.90;;;;;;5033321;28;20495;-78
2021/04/01 09:32:38;;;;;;;46.07;27.33;;;19.70;99.90;;;;;;5032342;28;20409;-80
2021/04/01 09:35:07;;;;;;;48.70;26.33;;;19.70;99.90;;;;;;5032840;28;20417;-81
2021/04/01 09:37:33;;;;;;;47.13;26.93;;;19.60;99.90;;;;;;5033292;28;20413;-78
2021/04/01 09:40:09;;;;;;;46.13;27.43;;;19.80;99.90;;;;;;5032279;28;20431;-80
2021/04/01 09:42:47;;;;;;;36.60;24.27;;;20.50;99.90;;;;;;5033354;28;20448;-80
2021/04/01 09:45:27;;;;;;;47.33;25.23;;;19.90;99.90;;;;;;5031661;28;20443;-81
2021/04/01 09:47:59;;;;;;;44.33;27.53;;;19.60;99.90;;;;;;5031936;28;20427;-81
2021/04/01 09:50:28;;;;;;;41.50;24.30;;;19.80;99.90;;;;;;5031462;28;20460;-81
2021/04/01 09:53:01;;;;;;;41.73;24.40;;;20.20;99.90;;;;;;5033149;28;20405;-80
2021/04/01 09:55:41;;;;;;;38.80;23.53;;;20.20;99.90;;;;;;5031445;28;20440;-78
2021/04/01 09:58:20;;;;;;;42.43;24.97;;;20.70;99.90;;;;;;5032786;28;20413;-79
2021/04/01 10:03:36;;;;;;;36.13;19.33;;;21.60;99.90;;;;;;5033030;28;20425;-81
2021/04/01 10:06:02;;;;;;;44.23;27.00;;;22.00;99.90;;;;;;5031172;28;20447;-79
2021/04/01 10:08:30;;;;;;;53.70;27.20;;;22.30;99.90;;;;;;5015483;28;20941;-80
2021/04/01 10:10:59;;;;;;;42.90;24.10;;;21.40;99.90;;;;;;5032816;28;20200;-79
2021/04/01 10:13:30;;;;;;;43.73;24.00;;;21.60;99.90;;;;;;5032961;28;20413;-80
2021/04/01 10:15:58;;;;;;;40.30;25.27;;;21.70;99.90;;;;;;5032466;28;20440;-79
2021/04/01 10:18:28;;;;;;;42.60;22.77;;;21.00;99.90;;;;;;5031744;28;20419;-81
2021/04/01 10:21:07;;;;;;;48.47;24.83;;;21.30;99.90;;;;;;5031672;28;20872;-78
2021/04/01 10:23:46;;;;;;;41.03;22.70;;;21.70;99.90;;;;;;5032642;28;20419;-82
2021/04/01 10:26:13;;;;;;;44.47;24.27;;;21.70;99.90;;;;;;5030959;28;20987;-80
2021/04/01 10:28:58;;;;;;;50.03;23.43;;;22.20;99.90;;;;;;5032683;28;20854;-80
2021/04/01 10:31:24;;;;;;;45.30;23.63;;;22.00;99.90;;;;;;5032818;28;20621;-79
2021/04/01 10:34:05;;;;;;;45.40;25.50;;;21.20;99.90;;;;;;5032718;28;20543;-80
2021/04/01 10:36:32;;;;;;;50.20;24.77;;;21.80;99.90;;;;;;5032164;28;20193;-78
2021/04/01 10:39:08;;;;;;;42.47;22.70;;;22.00;99.90;;;;;;5032607;28;20408;-81
2021/04/01 10:41:47;;;;;;;47.83;25.00;;;22.20;99.90;;;;;;5032802;28;20432;-81
2021/04/01 10:44:14;;;;;;;44.83;21.60;;;22.80;99.90;;;;;;5032490;28;20889;-81
2021/04/01 10:46:54;;;;;;;37.57;20.50;;;22.30;99.90;;;;;;5030908;28;20502;-79
2021/04/01 10:49:25;;;;;;;36.23;19.87;;;21.80;99.90;;;;;;5032623;28;20515;-78
2021/04/01 10:51:54;;;;;;;37.80;19.93;;;22.00;99.90;;;;;;5032382;28;20463;-80
2021/04/01 10:54:20;;;;;;;45.33;21.63;;;22.80;99.90;;;;;;5031121;28;20947;-78
2021/04/01 10:56:52;;;;;;;40.83;22.10;;;22.90;99.90;;;;;;5032130;28;20844;-79
2021/04/01 10:59:31;;;;;;;36.60;19.07;;;23.00;99.90;;;;;;5032493;28;20409;-78
2021/04/01 11:02:01;;;;;;;38.90;17.50;;;23.20;99.90;;;;;;5028204;28;20435;-79
2021/04/01 11:04:30;;;;;;;33.37;18.13;;;22.50;99.90;;;;;;5029543;28;20427;-78
2021/04/01 11:07:00;;;;;;;44.70;20.50;;;22.60;99.90;;;;;;5029527;28;20449;-79
2021/04/01 11:09:29;;;;;;;37.30;19.10;;;22.90;99.90;;;;;;5029559;28;20421;-78
2021/04/01 11:12:17;;;;;;;37.13;18.93;;;22.30;99.90;;;;;;5032668;28;20462;-80
2021/04/01 11:14:52;;;;;;;34.57;17.47;;;22.70;99.90;;;;;;5015486;28;20414;-78
2021/04/01 11:17:29;;;;;;;33.50;17.73;;;23.50;99.90;;;;;;5015066;28;20577;-80
2021/04/01 11:19:57;;;;;;;34.13;17.70;;;23.30;99.90;;;;;;5015012;28;20479;-79
2021/04/01 11:22:23;;;;;;;31.50;17.80;;;23.70;99.90;;;;;;5015753;28;20508;-80
2021/04/01 11:24:49;;;;;;;33.67;17.73;;;23.20;99.90;;;;;;5014268;28;20504;-78
2021/04/01 11:27:18;;;;;;;26.93;14.87;;;23.70;99.90;;;;;;5015636;28;20232;-80
2021/04/01 11:29:57;;;;;;;30.13;16.40;;;23.10;99.90;;;;;;5014347;28;20671;-78
2021/04/01 11:32:28;;;;;;;32.23;15.67;;;23.50;99.90;;;;;;5014483;28;20501;-80
2021/04/01 11:34:57;;;;;;;31.23;15.80;;;23.50;99.90;;;;;;5014033;28;20429;-79
2021/04/01 11:37:26;;;;;;;31.80;14.27;;;24.10;99.90;;;;;;5015854;28;20409;-78
2021/04/01 11:40:08;;;;;;;30.80;15.03;;;24.30;99.90;;;;;;5014183;28;20414;-79
2021/04/01 11:42:35;;;;;;;35.77;13.73;;;24.30;99.90;;;;;;5015483;28;20401;-77
2021/04/01 11:45:04;;;;;;;38.23;18.33;;;23.60;99.90;;;;;;5014892;28;20501;-78
2021/04/01 11:47:35;;;;;;;29.83;17.43;;;23.50;99.90;;;;;;5013797;28;20418;-77
2021/04/01 11:50:03;;;;;;;30.40;17.27;;;23.50;99.90;;;;;;5015122;28;20394;-79
2021/04/01 11:52:28;;;;;;;34.67;17.03;;;24.00;99.90;;;;;;5014886;28;20920;-79
2021/04/01 11:54:54;;;;;;;31.27;17.93;;;23.70;99.90;;;;;;5014346;28;20513;-77
2021/04/01 11:57:32;;;;;;;35.60;18.07;;;23.50;99.90;;;;;;5014947;28;20262;-76
2021/04/01 12:00:14;;;;;;;33.63;18.07;;;23.70;99.90;;;;;;5012938;28;20639;-77
2021/04/01 12:02:58;;;;;;;37.00;18.37;;;23.90;99.90;;;;;;5022895;28;20531;-76
2021/04/01 12:05:27;;;;;;;44.77;19.73;;;23.70;99.90;;;;;;5033591;28;20535;-76
2021/04/01 12:07:53;;;;;;;38.07;18.43;;;24.20;99.90;;;;;;5034217;28;20535;-76
2021/04/01 12:10:19;;;;;;;35.97;17.30;;;24.40;99.90;;;;;;5034778;28;20471;-80
2021/04/01 12:12:50;;;;;;;37.47;16.80;;;24.20;99.90;;;;;;5033325;28;20432;-78
2021/04/01 12:15:27;;;;;;;39.53;19.83;;;24.40;99.90;;;;;;5033370;28;20839;-78
2021/04/01 12:17:54;;;;;;;36.30;19.50;;;24.30;99.90;;;;;;5033580;28;20433;-77
2021/04/01 12:20:22;;;;;;;37.13;18.87;;;25.20;99.90;;;;;;5034435;28;20412;-78
2021/04/01 12:22:48;;;;;;;37.00;20.00;;;25.10;99.90;;;;;;5033720;28;20929;-77
2021/04/01 12:25:16;;;;;;;39.03;19.80;;;24.90;99.90;;;;;;5033425;28;20437;-77
2021/04/01 12:27:54;;;;;;;41.17;23.77;;;25.40;99.90;;;;;;5034283;28;20197;-77
2021/04/01 12:30:25;;;;;;;32.30;19.40;;;24.90;99.90;;;;;;5033415;28;20491;-78
2021/04/01 12:32:51;;;;;;;36.33;20.90;;;25.40;99.90;;;;;;5034413;28;20397;-77
2021/04/01 12:35:19;;;;;;;40.43;19.37;;;25.80;99.90;;;;;;5034099;28;20490;-77
2021/04/01 12:37:57;;;;;;;39.20;21.57;;;25.60;99.80;;;;;;5031975;28;20178;-78
2021/04/01 12:40:24;;;;;;;41.47;21.43;;;26.20;99.40;;;;;;5034596;28;20765;-76
2021/04/01 12:42:50;;;;;;;38.63;21.47;;;26.10;98.30;;;;;;5033724;28;20508;-77
2021/04/01 12:45:41;;;;;;;39.40;20.90;;;25.80;96.90;;;;;;5032548;28;20996;-77
2021/04/01 12:48:08;;;;;;;41.53;21.53;;;25.90;96.80;;;;;;5031966;28;20186;-77
2021/04/01 12:50:36;;;;;;;41.97;23.03;;;26.30;96.90;;;;;;5032400;28;20461;-77
2021/04/01 12:53:03;;;;;;;36.00;21.13;;;26.10;95.50;;;;;;5031220;28;20420;-78
2021/04/01 12:58:22;;;;;;;37.27;22.37;;;26.70;95.40;;;;;;5033749;28;20412;-78
2021/04/01 13:01:01;;;;;;;39.67;20.70;;;25.90;94.60;;;;;;5033125;28;20416;-78
2021/04/01 13:03:28;;;;;;;42.93;25.27;;;25.30;92.90;;;;;;5031430;28;20967;-80
2021/04/01 13:06:00;;;;;;;42.53;28.00;;;25.30;95.30;;;;;;5031064;28;20461;-78
2021/04/01 13:11:10;;;;;;;53.97;29.30;;;25.40;94.70;;;;;;5033557;28;20459;-79
2021/04/01 13:13:36;;;;;;;49.20;27.43;;;25.20;95.90;;;;;;5033721;28;20413;-78
2021/04/01 13:16:01;;;;;;;50.07;27.73;;;25.60;95.90;;;;;;5032632;28;20202;-79
2021/04/01 13:18:27;;;;;;;48.53;27.87;;;25.80;94.80;;;;;;5033927;28;20648;-76
2021/04/01 13:20:54;;;;;;;46.20;26.20;;;25.80;93.30;;;;;;5033089;28;20182;-78
2021/04/01 13:23:32;;;;;;;49.53;29.10;;;26.20;95.10;;;;;;5032870;28;20182;-78
2021/04/01 13:25:59;;;;;;;52.30;29.93;;;26.30;95.70;;;;;;5032828;28;20441;-77
2021/04/01 13:28:26;;;;;;;46.97;27.07;;;25.80;93.50;;;;;;5031794;28;20964;-79
2021/04/01 13:31:00;;;;;;;48.33;28.40;;;25.90;94.90;;;;;;5031187;28;20471;-78
2021/04/01 13:36:20;;;;;;;52.97;31.17;;;26.00;93.70;;;;;;5031346;28;20999;-78
2021/04/01 13:38:47;;;;;;;51.30;29.73;;;26.10;93.70;;;;;;5032920;28;20413;-79
2021/04/01 13:41:17;;;;;;;50.93;31.97;;;26.20;94.00;;;;;;5032819;28;20563;-78
2021/04/01 13:43:44;;;;;;;50.53;33.60;;;26.70;92.70;;;;;;5032336;28;20873;-77
2021/04/01 13:46:10;;;;;;;55.77;34.90;;;26.90;92.60;;;;;;5032204;28;20456;-78
2021/04/01 13:48:38;;;;;;;53.90;37.23;;;26.50;93.60;;;;;;5032387;28;20975;-77
2021/04/01 13:51:09;;;;;;;53.60;35.57;;;25.90;93.80;;;;;;5031640;28;20209;-78
2021/04/01 13:56:20;;;;;;;56.60;38.97;;;26.70;94.80;;;;;;5032281;28;20433;-79
2021/04/01 14:08:55;;;;;;;71.80;45.20;;;26.80;97.00;;;;;;5031859;28;20428;-78
2021/04/01 14:10:04;;;;;;;73.27;49.53;;;26.00;97.40;;;;;;5032469;28;20400;-78
2021/04/01 14:12:30;;;;;;;72.93;47.20;;;25.60;96.50;;;;;;5031943;28;20494;-77
2021/04/01 14:14:57;;;;;;;73.57;50.20;;;25.90;96.50;;;;;;5031022;28;20419;-78
2021/04/01 14:17:24;;;;;;;77.23;52.40;;;26.00;97.00;;;;;;5032033;28;20432;-78
2021/04/01 14:19:53;;;;;;;71.03;48.63;;;25.30;96.70;;;;;;5031957;28;20781;-76
2021/04/01 14:22:19;;;;;;;73.37;50.30;;;24.80;98.60;;;;;;5030396;28;20510;-77
2021/04/01 14:24:52;;;;;;;70.90;48.60;;;24.90;97.20;;;;;;5031888;28;20412;-77
2021/04/01 14:27:33;;;;;;;62.20;44.67;;;24.70;98.00;;;;;;5031631;28;20455;-77
2021/04/01 14:29:59;;;;;;;60.70;41.80;;;24.80;96.90;;;;;;5031341;28;20401;-78
2021/04/01 14:32:29;;;;;;;57.77;44.13;;;24.90;97.30;;;;;;5032085;28;20467;-79
2021/04/01 14:35:01;;;;;;;53.27;37.40;;;24.80;97.70;;;;;;5031923;28;20217;-77